avis per tempestes more information blitzortung!


avis per Pluja more information rain snow radar


Visita la nostra xarxa de llocs de meteo:

Template documentation
and downloads

And another site



Rain From: 17-08-2018 13:00 Until: 22:59 warning for: Rain Level: Orange info button
Thunderstorms From: 17-08-2018 12:00 Until: 18-08-2018 08:59 warning for: Thunderstorms Level: Yellow info button

Pagina Historial Weather Underground text

Diari Resum Agost 17, 2018 Unitats:  Mètric    Imperial   Tant
« Previous Dia
SegĂźent Dia »
Diari Setmana Mensual Anual Personalitzada
  Actual: Maxima: Minima: Media:
Temperatura: -7.6 °C -17.8 °C -7.6 °C -5.1 °C
Punt de rosada: -9.6 °C -17.8 °C -10.2 °C -8.7 °C
Humitat: 79 % Humidity % 49 % 66 %
Wind Speed: 11.9 km/h 0 km/h 0 km/h 8.4 km/h
RĂ fegues de vent: 9.3 km/h 0 km/h - -
Vent:ESE - - SSE
Pression baro: 34398.4 hPa 0 hPa 34296.8 hPa -
Precipitacions: 33.02 mm      
Historical Graphs
 
 
Dades de taula per Agost 17, 2018
Temps Temperatura Punt de rosada Pression baro Vent Wind Speed RĂ fegues de vent Humitat Rainfall Rate (Hourly)
-17.8 °C -17.8 °C 0 hPa Calm     Humidity % 0 mm
00:04 -4.8 °C -7.9 °C 34296.8 hPa WNW 6 km/h   71 % 0 mm
00:09 -4.8 °C -7.9 °C 34330.7 hPa NNE 6 km/h 2.3 km/h 71 % 0 mm
00:14 -4.9 °C -8.1 °C 34330.7 hPa NNW 11.9 km/h 6.3 km/h 70 % 0 mm
00:19 -4.9 °C -8.3 °C 34330.7 hPa NE 7.6 km/h 5.6 km/h 69 % 0 mm
00:24 -5 °C -8.4 °C 34330.7 hPa NNE 9 km/h 5.1 km/h 68 % 0 mm
00:28 -5.1 °C -8.5 °C 34330.7 hPa NE 9 km/h 5.1 km/h 68 % 0 mm
00:34 -5.1 °C -8.6 °C 34330.7 hPa NNW 9 km/h 5.6 km/h 68 % 0 mm
00:39 -5.2 °C -8.6 °C 34330.7 hPa NE 9 km/h 2.3 km/h 68 % 0 mm
00:44 -5.3 °C -8.8 °C 34330.7 hPa NE 6.3 km/h 4.2 km/h 67 % 0 mm
00:49 -5.3 °C -8.9 °C 34330.7 hPa NNW 9.8 km/h 3.1 km/h 67 % 0 mm
00:54 -5.4 °C -9.1 °C 34330.7 hPa NNE 15 km/h 6.3 km/h 66 % 0 mm
00:59 -5.4 °C -9.1 °C 34330.7 hPa NE 11.9 km/h 7.6 km/h 66 % 0 mm
01:04 -5.4 °C -9.1 °C 34330.7 hPa North 9 km/h 7.6 km/h 66 % 0 mm
01:09 -5.4 °C -9.1 °C 34296.8 hPa NNE 6 km/h 3.1 km/h 66 % 0 mm
01:14 -5.5 °C -9.2 °C 34296.8 hPa NNE 6.3 km/h 3.7 km/h 66 % 0 mm
01:19 -5.5 °C -9.2 °C 34296.8 hPa NNE 3.1 km/h   66 % 0 mm
01:24 -5.5 °C -9.2 °C 34296.8 hPa West 4.2 km/h   66 % 0 mm
01:29 -5.6 °C -9.3 °C 34296.8 hPa WNW 9 km/h 5.6 km/h 66 % 0 mm
01:34 -5.6 °C -9.3 °C 34296.8 hPa ENE 6 km/h   66 % 0 mm
01:39 -5.6 °C -9.3 °C 34330.7 hPa East 3.7 km/h   66 % 0 mm
01:44 -5.6 °C -9.1 °C 34330.7 hPa NE 3.1 km/h 3.1 km/h 67 % 0 mm
01:49 -5.6 °C -9.2 °C 34330.7 hPa WSW 3.7 km/h 3.1 km/h 67 % 0 mm
01:54 -5.6 °C -9.2 °C 34330.7 hPa SW 6.3 km/h 4.2 km/h 67 % 0 mm
01:59 -5.7 °C -9.1 °C 34330.7 hPa WSW 6 km/h 4.2 km/h 68 % 0 mm
02:04 -5.7 °C -9 °C 34330.7 hPa SW 6 km/h 3.7 km/h 69 % 0 mm
02:09 -5.7 °C -9 °C 34330.7 hPa SW 5.1 km/h   69 % 0 mm
02:14 -5.7 °C -9 °C 34330.7 hPa SW 6 km/h 3.7 km/h 69 % 0 mm
02:19 -5.7 °C -8.9 °C 34330.7 hPa WSW 6 km/h 3.7 km/h 70 % 0 mm
02:24 -5.7 °C -8.9 °C 34330.7 hPa WSW 6 km/h 5.1 km/h 70 % 0 mm
02:29 -5.7 °C -8.7 °C 34330.7 hPa SW 3.1 km/h   72 % 0 mm
02:34 -5.7 °C -8.7 °C 34330.7 hPa SW 6 km/h 4.2 km/h 72 % 0 mm
02:39 -5.7 °C -8.7 °C 34330.7 hPa WSW 3.7 km/h 3.1 km/h 72 % 0 mm
02:44 -5.7 °C -8.5 °C 34330.7 hPa WSW 3.1 km/h   73 % 0 mm
02:49 -5.6 °C -8.4 °C 34330.7 hPa Calm     73 % 0 mm
02:54 -5.6 °C -8.4 °C 34330.7 hPa Calm     73 % 0 mm
02:59 -5.7 °C -8.5 °C 34330.7 hPa Calm     73 % 0 mm
03:04 -5.6 °C -8.4 °C 34330.7 hPa Calm     73 % 0 mm
03:09 -5.6 °C -8.5 °C 34330.7 hPa Calm     72 % 0 mm
03:14 -5.6 °C -8.5 °C 34330.7 hPa Calm     72 % 0 mm
03:19 -5.6 °C -8.5 °C 34330.7 hPa Calm     72 % 0 mm
03:23 -5.7 °C -8.5 °C 34330.7 hPa Calm     73 % 0 mm
03:27 -5.7 °C -8.5 °C 34330.7 hPa Calm     73 % 0 mm
03:34 -5.8 °C -8.7 °C 34330.7 hPa NNE 6 km/h   72 % 0 mm
03:39 -5.8 °C -8.8 °C 34330.7 hPa NE 9 km/h 5.6 km/h 71 % 0 mm
03:44 -5.8 °C -8.9 °C 34330.7 hPa NNE 6.3 km/h 5.6 km/h 71 % 0 mm
03:49 -5.8 °C -8.9 °C 34330.7 hPa North 3.7 km/h 3.1 km/h 71 % 0 mm
03:54 -5.9 °C -9.1 °C 34330.7 hPa NNE 11.9 km/h 6.8 km/h 70 % 0 mm
03:59 -5.9 °C -9.1 °C 34330.7 hPa North 9 km/h 5.6 km/h 70 % 0 mm
04:04 -5.9 °C -9.1 °C 34330.7 hPa NNW 6 km/h 3.7 km/h 70 % 0 mm
04:09 -6 °C -9.2 °C 34330.7 hPa NW 9 km/h 5.6 km/h 70 % 0 mm
04:14 -6 °C -9.2 °C 34330.7 hPa SSW 9 km/h 5.1 km/h 70 % 0 mm
04:19 -6 °C -9.2 °C 34330.7 hPa North 6 km/h 5.1 km/h 70 % 0 mm
04:24 -6.1 °C -9.2 °C 34330.7 hPa NNW 3.1 km/h   70 % 0 mm
04:29 -6.1 °C -9.2 °C 34330.7 hPa NW 6 km/h 3.7 km/h 70 % 0 mm
04:34 -6.1 °C -9.2 °C 34330.7 hPa NNE 6 km/h 3.7 km/h 70 % 0 mm
04:39 -6.1 °C -9.3 °C 34330.7 hPa NNE 6 km/h   70 % 0 mm
04:44 -6.1 °C -9.3 °C 34330.7 hPa WNW 3.1 km/h 2.3 km/h 70 % 0 mm
04:49 -6.1 °C -9.3 °C 34330.7 hPa WNW 6 km/h 2.3 km/h 70 % 0 mm
04:54 -6.2 °C -9.2 °C 34330.7 hPa Calm     71 % 0 mm
04:59 -6.2 °C -9.2 °C 34330.7 hPa NNW 3.7 km/h 3.1 km/h 71 % 0 mm
05:04 -6.2 °C -9.2 °C 34330.7 hPa NNE 9 km/h 5.6 km/h 71 % 0 mm
05:09 -6.2 °C -9.2 °C 34330.7 hPa Calm     71 % 0 mm
05:14 -6.2 °C -9.2 °C 34330.7 hPa North 7.6 km/h   71 % 0 mm
05:19 -6.2 °C -9.2 °C 34330.7 hPa NNE 8.5 km/h 3.7 km/h 71 % 0 mm
05:24 -6.2 °C -9.2 °C 34330.7 hPa WNW 9 km/h 4.2 km/h 71 % 0 mm
05:29 -6.2 °C -9.3 °C 34330.7 hPa West 6 km/h   71 % 0 mm
05:34 -6.2 °C -9.3 °C 34330.7 hPa South 3.1 km/h   71 % 0 mm
05:39 -6.2 °C -9.1 °C 34330.7 hPa NNE 2.3 km/h   72 % 0 mm
05:44 -6.3 °C -9.2 °C 34330.7 hPa SW 4.2 km/h   72 % 0 mm
05:49 -6.3 °C -9.2 °C 34330.7 hPa WSW 3.1 km/h   72 % 0 mm
05:54 -6.3 °C -9.2 °C 34330.7 hPa WSW 6 km/h 5.1 km/h 72 % 0 mm
05:59 -6.4 °C -9.3 °C 34330.7 hPa West 9 km/h 6.3 km/h 72 % 0 mm
06:04 -6.3 °C -9.2 °C 34330.7 hPa West 6 km/h 5.1 km/h 72 % 0 mm
06:09 -6.3 °C -9.2 °C 34330.7 hPa WSW 6 km/h 4.2 km/h 72 % 0 mm
06:14 -6.3 °C -9.1 °C 34330.7 hPa WSW 6 km/h 5.6 km/h 73 % 0 mm
06:19 -6.4 °C -9.2 °C 34330.7 hPa WSW 11.9 km/h 5.6 km/h 73 % 0 mm
06:24 -6.4 °C -9.2 °C 34330.7 hPa SW 3.1 km/h 3.1 km/h 73 % 0 mm
06:29 -6.4 °C -9.2 °C 34330.7 hPa WSW 5.6 km/h 3.1 km/h 73 % 0 mm
06:34 -6.4 °C -9.1 °C 34330.7 hPa WSW 3.1 km/h 3.1 km/h 74 % 0 mm
06:39 -6.4 °C -9.1 °C 34330.7 hPa Calm     74 % 0 mm
06:44 -6.4 °C -9.1 °C 34330.7 hPa Calm     74 % 0 mm
06:49 -6.4 °C -9.1 °C 34330.7 hPa Calm     74 % 0 mm
06:54 -6.4 °C -9 °C 34330.7 hPa NNE 3.1 km/h 2.3 km/h 75 % 0 mm
06:59 -6.4 °C -9 °C 34330.7 hPa Calm     75 % 0 mm
07:04 -6.4 °C -8.9 °C 34330.7 hPa NNE 6 km/h 3.7 km/h 75 % 0 mm
07:09 -6.4 °C -8.9 °C 34330.7 hPa NNE 6.3 km/h   75 % 0 mm
07:14 -6.3 °C -8.9 °C 34330.7 hPa NNE 6 km/h 5.6 km/h 75 % 0 mm
07:19 -6.3 °C -8.9 °C 34330.7 hPa WNW 6 km/h 3.7 km/h 75 % 0 mm
07:24 -6.2 °C -8.8 °C 34330.7 hPa NE 6 km/h   75 % 0 mm
07:29 -6.2 °C -8.7 °C 34330.7 hPa NNW 6 km/h 5.1 km/h 75 % 0 mm
07:34 -6.1 °C -8.8 °C 34330.7 hPa NNW 5.1 km/h   74 % 0 mm
07:39 -6.1 °C -8.8 °C 34364.5 hPa NNE 15 km/h 8.5 km/h 74 % 0 mm
07:44 -6.1 °C -8.8 °C 34364.5 hPa NW 3.7 km/h 3.1 km/h 74 % 0 mm
07:49 -6.1 °C -8.7 °C 34364.5 hPa WSW 6 km/h 2.3 km/h 74 % 0 mm
07:54 -6 °C -8.7 °C 34364.5 hPa North 6 km/h 3.1 km/h 74 % 0 mm
07:59 -5.9 °C -8.6 °C 34364.5 hPa NE 6 km/h 4.2 km/h 74 % 0 mm
08:04 -5.8 °C -8.7 °C 34364.5 hPa ENE 8.5 km/h 4.2 km/h 73 % 0 mm
08:09 -5.7 °C -8.5 °C 34364.5 hPa ENE 8 km/h 5.1 km/h 73 % 0 mm
08:14 -5.6 °C -8.5 °C 34364.5 hPa NE 9.8 km/h 2.3 km/h 72 % 0 mm
08:19 -5.6 °C -8.5 °C 34364.5 hPa NNE 6 km/h 3.1 km/h 72 % 0 mm
08:24 -5.6 °C -8.6 °C 34364.5 hPa WNW 9 km/h 5.1 km/h 72 % 0 mm
08:29 -5.6 °C -8.6 °C 34364.5 hPa WNW 6 km/h 4.2 km/h 72 % 0 mm
08:34 -5.6 °C -8.6 °C 34364.5 hPa WSW 3.7 km/h   71 % 0 mm
08:39 -5.5 °C -8.6 °C 34364.5 hPa SW 6 km/h 4.2 km/h 71 % 0 mm
08:44 -5.4 °C -8.5 °C 34364.5 hPa WSW 6.3 km/h 6.3 km/h 71 % 0 mm
08:49 -5.4 °C -8.4 °C 34364.5 hPa SW 6 km/h 6.3 km/h 71 % 0 mm
08:54 -5.3 °C -8.4 °C 34364.5 hPa SW 6.8 km/h 3.7 km/h 71 % 0 mm
08:59 -5.2 °C -8.2 °C 34364.5 hPa SW 3.1 km/h   72 % 0 mm
09:04 -5.2 °C -8.2 °C 34364.5 hPa SW 6 km/h 4.2 km/h 71 % 0 mm
09:09 -5 °C -8.1 °C 34330.7 hPa South 6 km/h 5.6 km/h 71 % 0 mm
09:14 -4.8 °C -7.9 °C 34330.7 hPa SSW 9 km/h 3.7 km/h 71 % 0 mm
09:19 -4.7 °C -7.9 °C 34330.7 hPa West 6.8 km/h 3.1 km/h 70 % 0 mm
09:24 -4.5 °C -7.7 °C 34364.5 hPa West 6 km/h 4.2 km/h 70 % 0 mm
09:29 -4.3 °C -7.8 °C 34364.5 hPa West 3.1 km/h 2.3 km/h 68 % 0 mm
09:34 -4.4 °C -8.1 °C 34364.5 hPa West 9 km/h 3.1 km/h 67 % 0 mm
09:39 -4.5 °C -8 °C 34330.7 hPa West 9 km/h 5.6 km/h 68 % 0 mm
09:44 -4.3 °C -8.1 °C 34330.7 hPa NE 15.6 km/h 7.6 km/h 66 % 0 mm
09:49 -4.3 °C -8.2 °C 34330.7 hPa NNE 14.5 km/h 11.1 km/h 65 % 0 mm
09:54 -4.3 °C -8.2 °C 34330.7 hPa NNW 11.9 km/h 6.8 km/h 65 % 0 mm
09:59 -4.2 °C -8.1 °C 34330.7 hPa NNW 9 km/h 5.6 km/h 65 % 0 mm
10:04 -4 °C -8.1 °C 34330.7 hPa NNE 9 km/h 6.3 km/h 64 % 0 mm
10:09 -4.1 °C -8.2 °C 34330.7 hPa NE 15 km/h 8.5 km/h 63 % 0 mm
10:14 -3.7 °C -8.1 °C 34330.7 hPa WNW 8 km/h 5.6 km/h 62 % 0 mm
10:19 -3.5 °C -7.8 °C 34330.7 hPa WSW 3.1 km/h 3.1 km/h 62 % 0 mm
10:24 -3.4 °C -7.9 °C 34330.7 hPa NE 11.9 km/h 7.6 km/h 61 % 0 mm
10:29 -3.4 °C -8.1 °C 34330.7 hPa East 15 km/h 9.8 km/h 60 % 0 mm
10:34 -3.3 °C -8 °C 34330.7 hPa NNE 11.1 km/h 4.2 km/h 60 % 0 mm
10:39 -3.5 °C -8.2 °C 34364.5 hPa NNE 9 km/h 6.3 km/h 60 % 0 mm
10:44 -3.4 °C -8 °C 34364.5 hPa NNE 5.6 km/h 3.7 km/h 60 % 0 mm
10:49 -3.3 °C -8.1 °C 34364.5 hPa NE 11.9 km/h 6.8 km/h 59 % 0 mm
10:54 -3 °C -7.8 °C 34364.5 hPa NNE 6 km/h 3.7 km/h 59 % 0 mm
10:59 -2.9 °C -7.9 °C 34364.5 hPa NE 9 km/h 8.5 km/h 58 % 0 mm
11:04 -3 °C -7.9 °C 34364.5 hPa NNE 11.9 km/h 5.1 km/h 58 % 0 mm
11:09 -3 °C -8.1 °C 34364.5 hPa ENE 7.6 km/h 6.3 km/h 57 % 0 mm
11:14 -3.1 °C -8.2 °C 34364.5 hPa East 15 km/h 5.1 km/h 57 % 0 mm
11:19 -3 °C -8.1 °C 34364.5 hPa ENE 9 km/h 5.6 km/h 57 % 0 mm
11:24 -2.8 °C -7.9 °C 34364.5 hPa East 6 km/h 4.2 km/h 57 % 0 mm
11:29 -2.9 °C -8.1 °C 34364.5 hPa WSW 6.8 km/h 3.7 km/h 57 % 0 mm
11:34 -2.6 °C -7.9 °C 34364.5 hPa NNE 6 km/h 3.7 km/h 56 % 0 mm
11:39 -2.3 °C -7.7 °C 34330.7 hPa SW 9 km/h 5.1 km/h 56 % 0 mm
11:44 -2.4 °C -7.9 °C 34330.7 hPa WSW 6 km/h 4.2 km/h 55 % 0 mm
11:49 -2.1 °C -7.8 °C 34330.7 hPa SSE 6 km/h   54 % 0 mm
11:54 -2 °C -7.8 °C 34364.5 hPa SE 6 km/h 3.7 km/h 53 % 0 mm
11:59 -2.2 °C -7.8 °C 34364.5 hPa WNW 11.9 km/h 4.2 km/h 54 % 0 mm
12:04 -2.1 °C -7.9 °C 34364.5 hPa West 3.7 km/h   53 % 0 mm
12:09 -1.8 °C -7.8 °C 34330.7 hPa SSW 9 km/h 6.3 km/h 52 % 0 mm
12:14 -1.9 °C -7.9 °C 34330.7 hPa SW 9 km/h 2.3 km/h 52 % 0 mm
12:19 -1.9 °C -7.7 °C 34330.7 hPa WSW 6.3 km/h 5.1 km/h 53 % 0 mm
12:24 -2 °C -7.8 °C 34330.7 hPa WNW 11.9 km/h 6.8 km/h 53 % 0 mm
12:29 -1.9 °C -7.7 °C 34330.7 hPa SSW 7.6 km/h 5.6 km/h 53 % 0 mm
12:34 -1.8 °C -7.8 °C 34330.7 hPa SW 9 km/h 5.1 km/h 52 % 0 mm
12:39 -1.7 °C -7.9 °C 34330.7 hPa WNW 9 km/h 8 km/h 51 % 0 mm
12:44 -1.6 °C -7.8 °C 34330.7 hPa West 12.7 km/h 6.3 km/h 51 % 0 mm
12:49 -1.4 °C -7.7 °C 34330.7 hPa WSW 9.3 km/h 5.6 km/h 51 % 0 mm
12:54 -1.2 °C -7.6 °C 34330.7 hPa SSW 11.9 km/h 6.8 km/h 50 % 0 mm
12:59 -1.1 °C -7.7 °C 34330.7 hPa South 9 km/h 5.1 km/h 49 % 0 mm
13:04 -1.4 °C -7.8 °C 34330.7 hPa West 12.2 km/h 5.1 km/h 50 % 0 mm
13:09 -1.7 °C -8.2 °C 34330.7 hPa SW 9 km/h 6.8 km/h 49 % 0 mm
13:14 -1.9 °C -8.1 °C 34330.7 hPa NE 15 km/h 10.3 km/h 51 % 0 mm
13:19 -2.6 °C -8.9 °C 34330.7 hPa NE 32.8 km/h 22 km/h 50 % 0 mm
13:24 -3.2 °C -8.9 °C 34296.8 hPa NNE 26.9 km/h 16.1 km/h 53 % 0 mm
13:29 -3.9 °C -9.8 °C 34296.8 hPa NNE 44.7 km/h 39.4 km/h 52 % 0 mm
13:34 -4.6 °C -9.9 °C 34296.8 hPa NNE 38.8 km/h 27.7 km/h 55 % 0 mm
13:39 -4.7 °C -9.9 °C 34364.5 hPa East 23.8 km/h 17.9 km/h 56 % 0 mm
13:44 -5 °C -9.8 °C 34364.5 hPa ESE 38.8 km/h 23.3 km/h 58 % 0 mm
13:49 -5.4 °C -9.9 °C 34364.5 hPa NNE 32.8 km/h 12.2 km/h 60 % 0 mm
13:54 -5.6 °C -10.2 °C 34364.5 hPa ENE 23.8 km/h 16.1 km/h 59 % 0 mm
13:59 -5.7 °C -10.2 °C 34364.5 hPa East 22 km/h 11.6 km/h 60 % 0 mm
14:04 -5.9 °C -10.1 °C 34364.5 hPa ENE 20.9 km/h 14 km/h 63 % 0 mm
14:09 -6.1 °C -9.8 °C 34398.4 hPa SE 15.6 km/h 10.3 km/h 66 % 0 mm
14:14 -6.6 °C -9.9 °C 34398.4 hPa NE 17.9 km/h 10.3 km/h 68 % 0 mm
14:19 -6.9 °C -9.9 °C 34398.4 hPa ENE 23.8 km/h 19.2 km/h 71 % 0 mm
14:22 -7.1 °C -9.8 °C 34398.4 hPa ENE 15 km/h 8.5 km/h 73 % 33.02 mm
14:34 -7.4 °C -9.6 °C 34398.4 hPa East 11.9 km/h 10.3 km/h 78 % 33.02 mm
14:39 -7.6 °C -9.6 °C 34398.4 hPa ESE 11.9 km/h 9.3 km/h 79 % 33.02 mm
Meteo Sesrovires
Elogis d' Weather Underground - 4 mb

Guio original per  Jim McMurry - jmcmurry@mwt.net Adaptat per a la plantilla per  Wim van der Kuil - Leuven-Template.eu

Trobareu la nostra informacio del temps tambe a:

Weather Underground

AWEKAS